Wainuiomata, New Zealand
Current Conditions -  °F | °C
As of 11:00 AM on Friday 19 Dec 2014 (Local Time) from NZWN Reporting Station
Overcast Overcast  
Wind Chill: 64°   Ceiling: 1400
Heat Index: 64°   Visibility: 6mi
Dew Point: 59°   Wind: 22mph
Humidity: 83%   Direction: 360°N
Pressure: 29.97"   Gusts: NA
Location:  41.26°S, 174.95°E
Report Text: NZWN 182300Z AUTO 36019KT 9999 OVC014/// 18/15 Q1015 BECMGBKN018
Loading
Personal Weather Stations






























Interactive Weather Map New forecast layout! Learn more

10-Day Weather Forecast

Advertisements
Track Severe Weather on mobile